createdAt,value
2022-11-20T00:02:28.132Z,6.30
2022-11-20T00:05:04.166Z,4.40
2022-11-20T00:07:40.676Z,7.40
2022-11-20T00:10:18.108Z,3.90
2022-11-20T00:12:54.520Z,4.10
2022-11-20T00:15:31.316Z,4.80
2022-11-20T00:18:07.802Z,6.40
2022-11-20T00:20:44.461Z,5.90
2022-11-20T00:23:20.480Z,4.20
2022-11-20T00:25:57.336Z,6.40
2022-11-20T00:28:37.258Z,6.50
2022-11-20T00:31:15.833Z,5.30
2022-11-20T00:33:52.352Z,6.70
2022-11-20T00:36:30.324Z,5.60
2022-11-20T00:39:06.836Z,6.00
2022-11-20T00:41:43.735Z,6.80
2022-11-20T00:44:23.887Z,5.40
2022-11-20T00:47:00.468Z,4.30
2022-11-20T00:49:37.237Z,4.40
2022-11-20T00:52:14.358Z,6.10
2022-11-20T00:54:50.586Z,4.80
2022-11-20T00:57:26.696Z,4.30
2022-11-20T01:00:03.888Z,3.90
2022-11-20T01:02:40.698Z,5.40
2022-11-20T01:05:18.322Z,3.90
2022-11-20T01:07:55.343Z,5.40
2022-11-20T01:10:32.466Z,3.30
2022-11-20T01:13:25.883Z,5.70
2022-11-20T01:16:07.904Z,3.70
2022-11-20T01:18:47.151Z,4.20
2022-11-20T01:21:27.617Z,4.60
2022-11-20T01:24:03.405Z,5.40
2022-11-20T01:26:48.609Z,4.40
2022-11-20T01:29:28.331Z,8.00
2022-11-20T01:32:04.656Z,4.30
2022-11-20T01:34:41.766Z,4.10
2022-11-20T01:37:18.455Z,4.20
2022-11-20T01:39:54.895Z,4.90
2022-11-20T01:42:47.867Z,4.90
2022-11-20T01:46:17.630Z,4.20
2022-11-20T01:49:03.012Z,3.50
2022-11-20T01:51:47.204Z,3.30
2022-11-20T01:54:34.675Z,4.10
2022-11-20T01:57:14.153Z,4.50
2022-11-20T02:00:00.569Z,3.80
2022-11-20T02:02:37.828Z,3.70
2022-11-20T02:05:26.713Z,2.80
2022-11-20T02:08:06.655Z,3.60
2022-11-20T02:10:44.022Z,3.50
2022-11-20T02:13:34.058Z,3.50
2022-11-20T02:16:13.343Z,4.00
2022-11-20T02:18:50.545Z,4.10
2022-11-20T02:21:45.846Z,4.90
2022-11-20T02:24:25.442Z,3.70
2022-11-20T02:27:06.641Z,3.70
2022-11-20T02:29:50.697Z,3.70
2022-11-20T02:32:33.576Z,4.70
2022-11-20T02:36:00.962Z,3.80
2022-11-20T02:38:38.215Z,5.10
2022-11-20T02:41:15.334Z,4.10
2022-11-20T02:43:51.798Z,3.90
2022-11-20T02:46:28.249Z,3.80
2022-11-20T02:49:04.284Z,3.50
2022-11-20T02:51:41.110Z,4.30
2022-11-20T02:54:18.068Z,4.50
2022-11-20T02:56:54.681Z,4.20
2022-11-20T02:59:31.705Z,6.00
2022-11-20T03:02:08.408Z,4.30
2022-11-20T03:04:44.334Z,4.10
2022-11-20T03:07:20.324Z,3.70
2022-11-20T03:10:03.346Z,4.70
2022-11-20T03:12:39.380Z,5.90
2022-11-20T03:15:18.661Z,3.50
2022-11-20T03:17:56.428Z,3.80
2022-11-20T03:20:32.923Z,3.90
2022-11-20T03:23:08.955Z,4.50
2022-11-20T03:25:46.077Z,7.80
2022-11-20T03:28:22.745Z,3.40
2022-11-20T03:30:59.776Z,5.20
2022-11-20T03:33:38.316Z,3.50
2022-11-20T03:36:18.021Z,3.50
2022-11-20T03:38:54.112Z,3.70
2022-11-20T03:41:32.533Z,3.30
2022-11-20T03:44:12.247Z,4.20
2022-11-20T03:46:48.867Z,4.20
2022-11-20T03:49:25.308Z,4.30
2022-11-20T03:52:02.322Z,4.50
2022-11-20T03:54:40.047Z,5.30
2022-11-20T03:57:17.082Z,5.50
2022-11-20T03:59:54.331Z,3.60
2022-11-20T04:02:31.513Z,4.60
2022-11-20T04:05:08.908Z,3.60
2022-11-20T04:07:45.833Z,4.20
2022-11-20T04:10:22.268Z,5.40
2022-11-20T04:12:59.164Z,3.30
2022-11-20T04:15:38.568Z,6.70
2022-11-20T04:18:15.398Z,4.00
2022-11-20T04:20:52.189Z,4.50
2022-11-20T04:23:29.236Z,3.80
2022-11-20T04:26:12.636Z,3.80
2022-11-20T04:28:50.571Z,3.20
2022-11-20T04:31:33.268Z,5.00
2022-11-20T04:34:16.288Z,6.00
2022-11-20T04:36:52.525Z,3.80
2022-11-20T04:39:28.892Z,4.60
2022-11-20T04:42:24.868Z,4.30
2022-11-20T04:45:02.481Z,4.10
2022-11-20T04:47:39.217Z,3.00
2022-11-20T04:50:18.582Z,3.80
2022-11-20T04:52:55.265Z,3.60
2022-11-20T04:55:31.945Z,7.30
2022-11-20T04:58:07.810Z,4.90
2022-11-20T05:00:43.727Z,6.20
2022-11-20T05:03:20.724Z,3.80
2022-11-20T05:05:57.407Z,3.50
2022-11-20T05:08:33.904Z,4.90
2022-11-20T05:11:13.938Z,4.30
2022-11-20T05:13:50.588Z,4.20
2022-11-20T05:16:29.472Z,4.70
2022-11-20T05:19:09.808Z,4.90
2022-11-20T05:21:46.799Z,4.50
2022-11-20T05:24:23.313Z,3.50
2022-11-20T05:26:59.823Z,3.50
2022-11-20T05:29:36.950Z,4.40
2022-11-20T05:32:14.403Z,3.70
2022-11-20T05:35:16.046Z,5.90
2022-11-20T05:37:53.221Z,4.00
2022-11-20T05:40:31.920Z,6.00
2022-11-20T05:43:07.393Z,4.70
2022-11-20T05:45:43.803Z,3.50
2022-11-20T05:48:20.310Z,3.70
2022-11-20T05:50:56.564Z,4.90
2022-11-20T05:53:33.891Z,4.30
2022-11-20T05:56:14.121Z,4.20
2022-11-20T05:58:50.735Z,4.00
2022-11-20T06:01:29.743Z,4.90
2022-11-20T06:04:06.744Z,3.10
2022-11-20T06:06:44.309Z,3.50
2022-11-20T06:09:21.551Z,7.50
2022-11-20T06:11:58.527Z,4.70
2022-11-20T06:14:35.760Z,4.70
2022-11-20T06:17:12.434Z,4.80
2022-11-20T06:19:49.364Z,3.40
2022-11-20T06:22:25.912Z,3.40
2022-11-20T06:25:02.678Z,4.10
2022-11-20T06:27:38.927Z,4.00
2022-11-20T06:30:22.495Z,5.00
2022-11-20T06:32:59.671Z,4.60
2022-11-20T06:35:36.063Z,3.80
2022-11-20T06:38:12.818Z,7.00
2022-11-20T06:40:50.777Z,5.30
2022-11-20T06:43:28.238Z,4.10
2022-11-20T06:46:04.819Z,6.30
2022-11-20T06:48:41.550Z,4.00
2022-11-20T06:51:17.820Z,4.10
2022-11-20T06:53:54.934Z,3.90
2022-11-20T06:56:31.903Z,4.20
2022-11-20T06:59:13.566Z,3.90
2022-11-20T07:01:50.711Z,4.40
2022-11-20T07:04:27.846Z,5.10
2022-11-20T07:07:04.450Z,3.90
2022-11-20T07:09:41.158Z,3.60
2022-11-20T07:12:17.556Z,4.10
2022-11-20T07:14:54.689Z,6.10
2022-11-20T07:17:30.753Z,4.30
2022-11-20T07:20:08.335Z,4.70
2022-11-20T07:22:44.348Z,4.10
2022-11-20T07:25:21.402Z,4.60
2022-11-20T07:27:59.934Z,5.00
2022-11-20T07:30:37.078Z,4.20
2022-11-20T07:33:13.676Z,5.60
2022-11-20T07:35:50.058Z,5.30
2022-11-20T07:38:26.690Z,3.70
2022-11-20T07:41:05.092Z,4.40
2022-11-20T07:43:41.838Z,6.90
2022-11-20T07:46:18.695Z,4.70
2022-11-20T07:48:54.706Z,6.60
2022-11-20T07:51:31.298Z,5.40
2022-11-20T07:54:09.128Z,5.10
2022-11-20T07:56:44.923Z,4.30
2022-11-20T07:59:21.319Z,5.80
2022-11-20T08:01:57.350Z,5.50
2022-11-20T08:04:33.416Z,7.00
2022-11-20T08:07:10.657Z,7.40
2022-11-20T08:09:47.672Z,8.40
2022-11-20T08:12:43.857Z,10.70
2022-11-20T08:15:21.351Z,7.30
2022-11-20T08:18:29.466Z,7.00
2022-11-20T08:20:59.085Z,7.10
2022-11-20T08:23:36.112Z,14.20
2022-11-20T08:26:13.120Z,5.50
2022-11-20T08:28:50.390Z,6.10
2022-11-20T08:31:27.609Z,4.60
2022-11-20T08:34:18.618Z,4.60
2022-11-20T08:36:56.582Z,5.90
2022-11-20T08:39:33.399Z,5.30
2022-11-20T08:42:12.441Z,4.60
2022-11-20T08:44:48.323Z,6.60
2022-11-20T08:47:25.076Z,7.70
2022-11-20T08:50:02.619Z,6.90
2022-11-20T08:52:39.778Z,5.20
2022-11-20T08:55:17.525Z,6.60
2022-11-20T08:57:54.069Z,5.50
2022-11-20T09:00:32.445Z,5.90
2022-11-20T09:03:08.778Z,6.20
2022-11-20T09:05:45.623Z,5.70
2022-11-20T09:08:22.540Z,4.50
2022-11-20T09:11:02.092Z,4.80
2022-11-20T09:13:38.656Z,4.60
2022-11-20T09:16:16.864Z,4.80
2022-11-20T09:19:13.430Z,5.70
2022-11-20T09:21:56.896Z,4.90
2022-11-20T09:24:35.991Z,8.20
2022-11-20T09:27:13.175Z,4.10
2022-11-20T09:29:49.542Z,5.00
2022-11-20T09:32:25.935Z,4.90
2022-11-20T09:35:02.439Z,5.90
2022-11-20T09:37:39.159Z,4.80
2022-11-20T09:40:28.348Z,5.30
2022-11-20T09:43:14.519Z,6.00
2022-11-20T09:46:16.609Z,4.90
2022-11-20T09:49:11.281Z,4.10
2022-11-20T09:52:00.469Z,4.50
2022-11-20T09:54:42.116Z,4.40
2022-11-20T09:57:27.090Z,4.10
2022-11-20T10:00:08.132Z,4.00
2022-11-20T10:02:58.808Z,4.60
2022-11-20T10:05:43.008Z,6.50
2022-11-20T10:08:30.560Z,3.90
2022-11-20T10:11:20.558Z,4.80
2022-11-20T10:14:17.424Z,4.30
2022-11-20T10:17:06.198Z,4.50
2022-11-20T10:20:17.186Z,5.90
2022-11-20T10:23:25.954Z,5.20
2022-11-20T10:26:20.157Z,7.20
2022-11-20T10:29:13.634Z,4.60
2022-11-20T10:31:54.230Z,4.50
2022-11-20T10:34:44.127Z,5.10
2022-11-20T10:37:25.799Z,7.80
2022-11-20T10:40:18.397Z,5.60
2022-11-20T10:42:59.398Z,6.20
2022-11-20T10:45:52.405Z,6.40
2022-11-20T10:48:31.569Z,5.30
2022-11-20T10:51:29.926Z,7.30
2022-11-20T10:54:25.050Z,9.50
2022-11-20T10:57:09.322Z,6.10
2022-11-20T11:00:19.876Z,6.40
2022-11-20T11:03:03.775Z,5.40
2022-11-20T11:05:50.310Z,5.00
2022-11-20T11:08:30.431Z,5.10
2022-11-20T11:11:21.822Z,6.00
2022-11-20T11:14:07.854Z,5.00
2022-11-20T11:16:55.926Z,4.90
2022-11-20T11:19:32.834Z,4.80
2022-11-20T11:22:26.944Z,9.30
2022-11-20T11:25:04.399Z,4.00
2022-11-20T11:27:51.168Z,4.10
2022-11-20T11:30:29.686Z,6.40
2022-11-20T11:33:22.673Z,4.90
2022-11-20T11:36:02.740Z,5.20
2022-11-20T11:38:44.159Z,5.00
2022-11-20T11:41:27.482Z,6.50
2022-11-20T11:44:41.636Z,7.40
2022-11-20T11:47:33.094Z,6.10
2022-11-20T11:50:27.746Z,4.60
2022-11-20T11:53:20.752Z,6.30
2022-11-20T11:56:06.740Z,5.40
2022-11-20T11:58:51.501Z,5.50
2022-11-20T12:01:38.240Z,4.90
2022-11-20T12:04:29.575Z,5.20
2022-11-20T12:07:45.093Z,5.80
2022-11-20T12:10:26.418Z,5.10
2022-11-20T12:13:12.166Z,6.20
2022-11-20T12:15:53.597Z,5.60
2022-11-20T12:18:31.509Z,7.20
2022-11-20T12:21:30.199Z,6.40
2022-11-20T12:24:35.614Z,7.20
2022-11-20T12:27:46.478Z,7.90
2022-11-20T12:30:25.754Z,8.40
2022-11-20T12:33:35.665Z,7.70
2022-11-20T12:36:36.218Z,8.10
2022-11-20T12:39:36.931Z,9.30
2022-11-20T12:43:00.695Z,9.60
2022-11-20T12:46:02.453Z,12.10
2022-11-20T12:49:01.515Z,11.60
2022-11-20T12:52:00.813Z,13.20
2022-11-20T12:55:13.703Z,11.90
2022-11-20T12:57:57.172Z,14.20
2022-11-20T13:00:37.420Z,14.60
2022-11-20T13:03:42.206Z,14.80
2022-11-20T13:06:25.115Z,13.20
2022-11-20T13:09:04.556Z,13.80
2022-11-20T13:11:48.982Z,14.20
2022-11-20T13:14:41.269Z,18.40
2022-11-20T13:17:28.332Z,15.30
2022-11-20T13:20:05.799Z,17.40
2022-11-20T13:22:54.009Z,16.70
2022-11-20T13:25:35.533Z,18.50
2022-11-20T13:28:33.004Z,16.40
2022-11-20T13:31:14.131Z,17.90
2022-11-20T13:33:59.292Z,16.30
2022-11-20T13:36:37.996Z,15.60
2022-11-20T13:39:16.554Z,19.00
2022-11-20T13:42:04.237Z,16.00
2022-11-20T13:44:45.561Z,17.20
2022-11-20T13:47:30.320Z,18.60
2022-11-20T13:50:11.906Z,17.40
2022-11-20T13:53:08.589Z,18.20
2022-11-20T13:55:50.689Z,14.60
2022-11-20T13:58:54.005Z,18.50
2022-11-20T14:01:35.819Z,20.40
2022-11-20T14:04:29.686Z,18.20
2022-11-20T14:07:09.607Z,19.50
2022-11-20T14:09:56.259Z,21.00
2022-11-20T14:12:38.321Z,19.10
2022-11-20T14:15:40.407Z,17.60
2022-11-20T14:18:29.239Z,23.20
2022-11-20T14:21:12.777Z,20.20
2022-11-20T14:23:49.449Z,21.10
2022-11-20T14:26:26.787Z,21.80
2022-11-20T14:29:03.905Z,20.80
2022-11-20T14:31:40.403Z,20.50
2022-11-20T14:34:26.004Z,19.10
2022-11-20T14:37:05.243Z,21.40
2022-11-20T14:39:44.825Z,22.80
2022-11-20T14:42:27.227Z,18.80
2022-11-20T14:45:05.392Z,20.20
2022-11-20T14:47:42.882Z,22.20
2022-11-20T14:50:26.688Z,22.60
2022-11-20T14:53:05.326Z,19.50
2022-11-20T14:55:43.882Z,18.10
2022-11-20T14:58:31.404Z,17.30
2022-11-20T15:01:09.205Z,21.70
2022-11-20T15:03:47.282Z,19.70
2022-11-20T15:06:33.774Z,20.30
2022-11-20T15:09:16.568Z,19.60
2022-11-20T15:12:02.858Z,20.30
2022-11-20T15:14:42.905Z,17.60
2022-11-20T15:17:20.508Z,18.80
2022-11-20T15:19:58.935Z,19.90
2022-11-20T15:22:35.579Z,19.00
2022-11-20T15:25:21.386Z,19.60
2022-11-20T15:28:01.447Z,20.40
2022-11-20T15:30:38.736Z,18.60
2022-11-20T15:33:16.304Z,19.10
2022-11-20T15:35:52.796Z,22.80
2022-11-20T15:38:28.296Z,18.70
2022-11-20T15:41:06.057Z,19.70
2022-11-20T15:43:42.816Z,19.80
2022-11-20T15:46:23.764Z,23.30
2022-11-20T15:49:03.559Z,23.00
2022-11-20T15:51:43.328Z,27.20
2022-11-20T15:54:23.582Z,42.20
2022-11-20T15:57:02.010Z,28.90
2022-11-20T15:59:42.430Z,26.20
2022-11-20T16:02:20.158Z,24.10
2022-11-20T16:04:57.329Z,24.20
2022-11-20T16:07:34.203Z,24.10
2022-11-20T16:10:14.783Z,25.90
2022-11-20T16:13:07.935Z,23.40
2022-11-20T16:15:49.225Z,25.30
2022-11-20T16:18:28.236Z,26.80
2022-11-20T16:21:05.117Z,24.20
2022-11-20T16:23:41.803Z,23.30
2022-11-20T16:26:23.573Z,24.30
2022-11-20T16:29:00.118Z,22.60
2022-11-20T16:31:36.233Z,24.00
2022-11-20T16:34:14.283Z,22.50
2022-11-20T16:36:50.611Z,23.90
2022-11-20T16:39:28.499Z,23.40
2022-11-20T16:42:07.203Z,25.40
2022-11-20T16:44:44.165Z,26.30
2022-11-20T16:47:21.666Z,25.10
2022-11-20T16:49:58.827Z,23.10
2022-11-20T16:52:35.081Z,23.90
2022-11-20T16:55:14.330Z,26.70
2022-11-20T16:57:50.815Z,25.80
2022-11-20T17:00:27.896Z,32.00
2022-11-20T17:03:04.826Z,32.90
2022-11-20T17:05:43.090Z,30.00
2022-11-20T17:08:20.102Z,29.20
2022-11-20T17:10:57.091Z,33.60
2022-11-20T17:13:39.647Z,28.70
2022-11-20T17:16:20.620Z,28.20
2022-11-20T17:19:02.819Z,27.80
2022-11-20T17:21:39.549Z,25.50
2022-11-20T17:24:18.289Z,23.40
2022-11-20T17:26:56.341Z,26.40
2022-11-20T17:29:35.485Z,27.30
2022-11-20T17:32:14.660Z,25.90
2022-11-20T17:34:51.219Z,26.40
2022-11-20T17:37:28.262Z,25.00
2022-11-20T17:40:05.885Z,26.40
2022-11-20T17:42:42.026Z,25.00
2022-11-20T17:45:19.200Z,28.20
2022-11-20T17:47:55.276Z,27.70
2022-11-20T17:50:32.145Z,26.50
2022-11-20T17:53:09.990Z,46.40
2022-11-20T17:56:03.413Z,30.20
2022-11-20T17:58:40.138Z,28.10
2022-11-20T18:01:16.784Z,30.10
2022-11-20T18:03:53.751Z,33.50
2022-11-20T18:06:32.235Z,31.20
2022-11-20T18:09:09.468Z,28.00
2022-11-20T18:11:46.860Z,29.10
2022-11-20T18:14:36.811Z,27.30
2022-11-20T18:17:15.478Z,29.20
2022-11-20T18:20:21.321Z,28.30
2022-11-20T18:22:49.822Z,25.90
2022-11-20T18:25:26.989Z,28.40
2022-11-20T18:28:04.254Z,26.80
2022-11-20T18:30:41.479Z,27.00
2022-11-20T18:33:17.310Z,25.20
2022-11-20T18:35:53.848Z,26.90
2022-11-20T18:38:30.701Z,23.00
2022-11-20T18:41:07.920Z,31.70
2022-11-20T18:44:01.643Z,27.60
2022-11-20T18:46:38.588Z,27.50
2022-11-20T18:49:14.466Z,27.00
2022-11-20T18:51:50.907Z,23.30
2022-11-20T18:54:27.297Z,24.10
2022-11-20T18:57:04.389Z,24.80
2022-11-20T18:59:40.777Z,24.80
2022-11-20T19:02:19.928Z,22.30
2022-11-20T19:04:56.141Z,27.70
2022-11-20T19:07:32.893Z,26.40
2022-11-20T19:10:11.113Z,20.70
2022-11-20T19:12:47.793Z,27.90
2022-11-20T19:15:25.064Z,24.80
2022-11-20T19:18:01.460Z,24.50
2022-11-20T19:20:37.526Z,27.40
2022-11-20T19:23:13.664Z,25.10
2022-11-20T19:25:49.679Z,22.40
2022-11-20T19:28:26.232Z,21.40
2022-11-20T19:31:07.423Z,23.40
2022-11-20T19:33:44.753Z,23.50
2022-11-20T19:36:24.062Z,22.00
2022-11-20T19:39:00.940Z,21.00
2022-11-20T19:41:38.926Z,23.20
2022-11-20T19:44:17.182Z,20.60
2022-11-20T19:46:54.441Z,22.50
2022-11-20T19:49:31.546Z,28.00
2022-11-20T19:52:08.968Z,20.90
2022-11-20T19:54:44.497Z,24.00
2022-11-20T19:57:20.732Z,20.10
2022-11-20T19:59:57.750Z,24.80
2022-11-20T20:02:33.963Z,22.00
2022-11-20T20:05:13.140Z,21.50
2022-11-20T20:07:50.046Z,19.40
2022-11-20T20:10:27.126Z,18.90
2022-11-20T20:13:02.862Z,18.80
2022-11-20T20:15:45.483Z,20.10
2022-11-20T20:18:21.557Z,20.00
2022-11-20T20:21:02.601Z,18.10
2022-11-20T20:23:39.362Z,23.10
2022-11-20T20:26:17.545Z,21.30
2022-11-20T20:28:53.952Z,21.80
2022-11-20T20:31:32.157Z,19.50
2022-11-20T20:34:10.251Z,23.50
2022-11-20T20:36:47.635Z,21.30
2022-11-20T20:39:24.809Z,22.20
2022-11-20T20:42:01.287Z,20.50
2022-11-20T20:44:54.288Z,24.00
2022-11-20T20:47:35.489Z,20.90
2022-11-20T20:50:15.000Z,19.10
2022-11-20T20:52:52.028Z,21.60
2022-11-20T20:55:28.985Z,16.40
2022-11-20T20:58:06.075Z,21.00
2022-11-20T21:00:44.835Z,20.10
2022-11-20T21:03:20.612Z,18.90
2022-11-20T21:06:01.841Z,18.00
2022-11-20T21:08:40.772Z,19.20
2022-11-20T21:11:20.342Z,19.40
2022-11-20T21:13:57.377Z,18.90
2022-11-20T21:16:41.245Z,20.00
2022-11-20T21:19:19.158Z,17.70
2022-11-20T21:22:03.234Z,16.40
2022-11-20T21:24:39.734Z,19.70
2022-11-20T21:27:16.308Z,17.60
2022-11-20T21:29:52.659Z,18.40
2022-11-20T21:32:29.547Z,16.30
2022-11-20T21:35:06.722Z,20.60
2022-11-20T21:37:44.535Z,17.50
2022-11-20T21:40:22.462Z,18.80
2022-11-20T21:43:00.174Z,19.30
2022-11-20T21:45:37.188Z,17.90
2022-11-20T21:48:15.840Z,17.60
2022-11-20T21:50:52.904Z,17.90
2022-11-20T21:53:29.181Z,17.30
2022-11-20T21:56:06.533Z,16.50
2022-11-20T21:58:45.985Z,15.00
2022-11-20T22:01:25.140Z,17.20
2022-11-20T22:04:04.171Z,18.90
2022-11-20T22:06:41.866Z,16.60
2022-11-20T22:09:18.630Z,19.50
2022-11-20T22:11:54.603Z,16.90
2022-11-20T22:14:30.875Z,19.80
2022-11-20T22:17:07.038Z,21.60
2022-11-20T22:19:43.307Z,19.00
2022-11-20T22:22:20.396Z,16.90
2022-11-20T22:24:57.177Z,19.50
2022-11-20T22:27:34.478Z,16.40
2022-11-20T22:30:15.618Z,17.30
2022-11-20T22:32:54.214Z,19.80
2022-11-20T22:35:31.032Z,19.50
2022-11-20T22:38:07.846Z,18.40
2022-11-20T22:40:44.321Z,16.30
2022-11-20T22:43:22.189Z,19.40
2022-11-20T22:46:02.576Z,21.50
2022-11-20T22:48:38.681Z,18.60
2022-11-20T22:51:18.522Z,18.30
2022-11-20T22:53:55.369Z,18.40
2022-11-20T22:56:31.986Z,16.30
2022-11-20T22:59:07.489Z,19.10
2022-11-20T23:01:45.316Z,19.10
2022-11-20T23:04:22.173Z,18.70
2022-11-20T23:06:58.827Z,18.30
2022-11-20T23:09:35.299Z,18.30
2022-11-20T23:12:15.409Z,20.50
2022-11-20T23:14:52.067Z,19.90
2022-11-20T23:17:28.937Z,18.00
2022-11-20T23:20:05.609Z,20.70
2022-11-20T23:22:42.434Z,19.00
2022-11-20T23:25:19.808Z,25.80
2022-11-20T23:27:58.002Z,20.40
2022-11-20T23:30:35.303Z,19.50
2022-11-20T23:33:12.025Z,16.70
2022-11-20T23:35:51.087Z,18.60
2022-11-20T23:38:27.166Z,17.90
2022-11-20T23:41:03.623Z,18.90
2022-11-20T23:43:40.106Z,15.60
2022-11-20T23:46:16.996Z,20.50
2022-11-20T23:48:54.501Z,20.70
2022-11-20T23:51:31.222Z,21.40
2022-11-20T23:54:08.510Z,22.00
2022-11-20T23:56:44.464Z,20.60
2022-11-20T23:59:21.172Z,22.00
